sensor_id;sensor_type;location;lat;lon;timestamp;pressure;altitude;pressure_sealevel;temperature;humidity
11343;BME280;5726;42.160;24.746;2023-02-14T00:01:23;100971.91;;;5.51;57.83
11343;BME280;5726;42.160;24.746;2023-02-14T00:03:48;100970.44;;;5.55;58.03
11343;BME280;5726;42.160;24.746;2023-02-14T00:06:14;100967.78;;;5.55;58.02
11343;BME280;5726;42.160;24.746;2023-02-14T00:08:40;100970.28;;;5.74;56.90
11343;BME280;5726;42.160;24.746;2023-02-14T00:11:08;100972.94;;;5.74;57.11
11343;BME280;5726;42.160;24.746;2023-02-14T00:13:34;100964.72;;;5.76;56.93
11343;BME280;5726;42.160;24.746;2023-02-14T00:15:59;100954.88;;;5.76;56.20
11343;BME280;5726;42.160;24.746;2023-02-14T00:18:25;100957.28;;;5.60;56.98
11343;BME280;5726;42.160;24.746;2023-02-14T00:21:10;100964.38;;;5.66;56.55
11343;BME280;5726;42.160;24.746;2023-02-14T00:23:36;100976.66;;;5.67;56.34
11343;BME280;5726;42.160;24.746;2023-02-14T00:26:01;100975.41;;;5.52;56.97
11343;BME280;5726;42.160;24.746;2023-02-14T00:28:27;100975.56;;;5.57;56.74
11343;BME280;5726;42.160;24.746;2023-02-14T00:30:52;100983.31;;;5.58;56.34
11343;BME280;5726;42.160;24.746;2023-02-14T00:33:20;100977.88;;;5.71;55.83
11343;BME280;5726;42.160;24.746;2023-02-14T00:35:45;100974.59;;;5.69;55.85
11343;BME280;5726;42.160;24.746;2023-02-14T00:38:11;100974.56;;;5.51;56.43
11343;BME280;5726;42.160;24.746;2023-02-14T00:40:36;100965.44;;;5.47;56.88
11343;BME280;5726;42.160;24.746;2023-02-14T00:43:02;100965.78;;;5.51;56.28
11343;BME280;5726;42.160;24.746;2023-02-14T00:45:27;100964.09;;;5.56;56.32
11343;BME280;5726;42.160;24.746;2023-02-14T00:47:52;100964.91;;;5.57;56.46
11343;BME280;5726;42.160;24.746;2023-02-14T00:50:18;100970.53;;;5.67;55.94
11343;BME280;5726;42.160;24.746;2023-02-14T00:52:43;100974.44;;;5.64;56.13
11343;BME280;5726;42.160;24.746;2023-02-14T00:55:09;100971.94;;;5.69;55.80
11343;BME280;5726;42.160;24.746;2023-02-14T00:57:34;100984.44;;;5.68;55.99
11343;BME280;5726;42.160;24.746;2023-02-14T00:59:59;100970.47;;;5.73;55.42
11343;BME280;5726;42.160;24.746;2023-02-14T01:02:25;100979.06;;;5.75;55.22
11343;BME280;5726;42.160;24.746;2023-02-14T01:04:50;100986.78;;;5.83;54.89
11343;BME280;5726;42.160;24.746;2023-02-14T01:07:16;100977.22;;;5.93;54.50
11343;BME280;5726;42.160;24.746;2023-02-14T01:09:41;100968.84;;;5.90;54.45
11343;BME280;5726;42.160;24.746;2023-02-14T01:12:06;100966.63;;;5.87;54.29
11343;BME280;5726;42.160;24.746;2023-02-14T01:14:32;100965.59;;;5.70;55.19
11343;BME280;5726;42.160;24.746;2023-02-14T01:16:57;100969.59;;;5.79;55.00
11343;BME280;5726;42.160;24.746;2023-02-14T01:19:24;100965.84;;;5.86;54.58
11343;BME280;5726;42.160;24.746;2023-02-14T01:21:50;100960.72;;;5.85;54.33
11343;BME280;5726;42.160;24.746;2023-02-14T01:24:15;100955.38;;;6.03;53.70
11343;BME280;5726;42.160;24.746;2023-02-14T01:26:41;100956.50;;;5.95;53.90
11343;BME280;5726;42.160;24.746;2023-02-14T01:29:06;100950.22;;;5.90;53.99
11343;BME280;5726;42.160;24.746;2023-02-14T01:31:33;100946.31;;;5.92;53.73
11343;BME280;5726;42.160;24.746;2023-02-14T01:33:59;100949.06;;;5.86;53.67
11343;BME280;5726;42.160;24.746;2023-02-14T01:38:58;100947.75;;;5.77;54.14
11343;BME280;5726;42.160;24.746;2023-02-14T01:41:25;100952.16;;;5.83;54.17
11343;BME280;5726;42.160;24.746;2023-02-14T01:46:28;100941.19;;;5.73;55.08
11343;BME280;5726;42.160;24.746;2023-02-14T01:48:59;100941.97;;;5.80;54.31
11343;BME280;5726;42.160;24.746;2023-02-14T01:51:26;100952.00;;;5.96;53.86
11343;BME280;5726;42.160;24.746;2023-02-14T01:53:52;100951.69;;;6.04;53.44
11343;BME280;5726;42.160;24.746;2023-02-14T01:56:24;100945.94;;;5.89;53.83
11343;BME280;5726;42.160;24.746;2023-02-14T01:58:54;100939.88;;;6.00;52.75
11343;BME280;5726;42.160;24.746;2023-02-14T02:01:22;100927.22;;;5.95;53.25
11343;BME280;5726;42.160;24.746;2023-02-14T02:03:51;100928.22;;;5.83;53.35
11343;BME280;5726;42.160;24.746;2023-02-14T02:06:31;100919.78;;;5.68;54.63
11343;BME280;5726;42.160;24.746;2023-02-14T02:09:23;100920.13;;;5.71;54.30
11343;BME280;5726;42.160;24.746;2023-02-14T02:11:51;100905.59;;;5.92;54.26
11343;BME280;5726;42.160;24.746;2023-02-14T02:14:19;100921.56;;;5.92;53.79
11343;BME280;5726;42.160;24.746;2023-02-14T02:33:36;100902.78;;;6.16;52.21
11343;BME280;5726;42.160;24.746;2023-02-14T02:39:11;100901.25;;;6.09;52.65
11343;BME280;5726;42.160;24.746;2023-02-14T02:42:05;100894.84;;;6.27;52.09
11343;BME280;5726;42.160;24.746;2023-02-14T02:49:56;100900.97;;;6.28;52.42
11343;BME280;5726;42.160;24.746;2023-02-14T02:58:24;100896.31;;;6.23;52.55
11343;BME280;5726;42.160;24.746;2023-02-14T03:00:52;100886.84;;;6.39;51.88
11343;BME280;5726;42.160;24.746;2023-02-14T03:03:20;100876.84;;;6.12;52.97
11343;BME280;5726;42.160;24.746;2023-02-14T03:06:07;100870.38;;;6.19;52.47
11343;BME280;5726;42.160;24.746;2023-02-14T03:08:32;100871.91;;;6.26;52.15
11343;BME280;5726;42.160;24.746;2023-02-14T03:10:59;100871.56;;;5.94;53.10
11343;BME280;5726;42.160;24.746;2023-02-14T03:16:30;100877.66;;;5.83;53.51
11343;BME280;5726;42.160;24.746;2023-02-14T03:19:19;100870.38;;;5.90;52.90
11343;BME280;5726;42.160;24.746;2023-02-14T03:22:21;100870.34;;;5.78;53.39
11343;BME280;5726;42.160;24.746;2023-02-14T03:28:27;100864.13;;;5.67;54.08
11343;BME280;5726;42.160;24.746;2023-02-14T03:31:09;100869.06;;;5.45;54.74
11343;BME280;5726;42.160;24.746;2023-02-14T03:36:30;100845.22;;;5.39;54.81
11343;BME280;5726;42.160;24.746;2023-02-14T03:39:07;100849.66;;;5.45;54.74
11343;BME280;5726;42.160;24.746;2023-02-14T03:41:42;100851.66;;;5.49;54.55
11343;BME280;5726;42.160;24.746;2023-02-14T03:44:11;100853.72;;;5.47;54.33
11343;BME280;5726;42.160;24.746;2023-02-14T03:46:44;100857.09;;;5.36;54.48
11343;BME280;5726;42.160;24.746;2023-02-14T03:49:15;100852.19;;;5.40;54.55
11343;BME280;5726;42.160;24.746;2023-02-14T03:51:44;100855.56;;;5.47;54.20
11343;BME280;5726;42.160;24.746;2023-02-14T03:54:12;100858.44;;;5.45;54.68
11343;BME280;5726;42.160;24.746;2023-02-14T03:56:47;100878.34;;;5.43;54.82
11343;BME280;5726;42.160;24.746;2023-02-14T03:59:20;100870.84;;;5.33;55.16
11343;BME280;5726;42.160;24.746;2023-02-14T04:01:51;100870.56;;;5.41;54.97
11343;BME280;5726;42.160;24.746;2023-02-14T04:04:20;100873.28;;;5.53;54.35
11343;BME280;5726;42.160;24.746;2023-02-14T04:06:47;100874.81;;;5.60;53.92
11343;BME280;5726;42.160;24.746;2023-02-14T04:09:12;100865.28;;;5.70;53.36
11343;BME280;5726;42.160;24.746;2023-02-14T04:11:38;100852.38;;;5.74;53.75
11343;BME280;5726;42.160;24.746;2023-02-14T04:14:04;100853.47;;;5.67;54.00
11343;BME280;5726;42.160;24.746;2023-02-14T04:16:30;100852.19;;;5.69;53.49
11343;BME280;5726;42.160;24.746;2023-02-14T04:18:55;100840.25;;;5.78;53.31
11343;BME280;5726;42.160;24.746;2023-02-14T04:21:40;100843.50;;;5.62;54.08
11343;BME280;5726;42.160;24.746;2023-02-14T04:24:05;100834.75;;;5.73;53.31
11343;BME280;5726;42.160;24.746;2023-02-14T04:26:31;100833.66;;;5.80;52.96
11343;BME280;5726;42.160;24.746;2023-02-14T04:28:56;100833.66;;;5.80;52.96
11343;BME280;5726;42.160;24.746;2023-02-14T04:31:22;100827.66;;;5.85;52.74
11343;BME280;5726;42.160;24.746;2023-02-14T04:33:47;100827.69;;;5.67;53.13
11343;BME280;5726;42.160;24.746;2023-02-14T04:36:15;100823.25;;;5.61;53.02
11343;BME280;5726;42.160;24.746;2023-02-14T04:38:40;100821.38;;;5.50;53.31
11343;BME280;5726;42.160;24.746;2023-02-14T04:41:06;100818.94;;;5.49;53.60
11343;BME280;5726;42.160;24.746;2023-02-14T04:43:31;100814.75;;;5.53;53.62
11343;BME280;5726;42.160;24.746;2023-02-14T04:45:57;100802.31;;;5.65;52.97
11343;BME280;5726;42.160;24.746;2023-02-14T04:48:22;100806.84;;;5.64;52.87
11343;BME280;5726;42.160;24.746;2023-02-14T04:50:53;100803.00;;;5.60;52.59
11343;BME280;5726;42.160;24.746;2023-02-14T04:53:20;100808.38;;;5.71;52.65
11343;BME280;5726;42.160;24.746;2023-02-14T04:55:47;100802.25;;;5.71;51.43
11343;BME280;5726;42.160;24.746;2023-02-14T04:58:14;100796.19;;;5.64;51.27
11343;BME280;5726;42.160;24.746;2023-02-14T05:00:39;100790.75;;;5.59;51.62
11343;BME280;5726;42.160;24.746;2023-02-14T05:03:04;100800.59;;;5.41;52.39
11343;BME280;5726;42.160;24.746;2023-02-14T05:05:30;100779.72;;;5.44;52.38
11343;BME280;5726;42.160;24.746;2023-02-14T05:07:55;100785.75;;;5.33;53.10
11343;BME280;5726;42.160;24.746;2023-02-14T05:10:21;100769.97;;;5.38;53.12
11343;BME280;5726;42.160;24.746;2023-02-14T05:12:46;100761.63;;;5.64;52.06
11343;BME280;5726;42.160;24.746;2023-02-14T05:15:12;100768.47;;;5.42;53.00
11343;BME280;5726;42.160;24.746;2023-02-14T05:17:37;100771.00;;;5.37;53.20
11343;BME280;5726;42.160;24.746;2023-02-14T05:20:04;100771.31;;;5.29;53.59
11343;BME280;5726;42.160;24.746;2023-02-14T05:22:30;100777.63;;;5.46;53.16
11343;BME280;5726;42.160;24.746;2023-02-14T05:24:55;100788.16;;;5.53;53.02
11343;BME280;5726;42.160;24.746;2023-02-14T05:27:20;100782.41;;;5.56;53.40
11343;BME280;5726;42.160;24.746;2023-02-14T05:29:46;100795.91;;;5.54;53.40
11343;BME280;5726;42.160;24.746;2023-02-14T05:32:11;100786.00;;;5.61;53.10
11343;BME280;5726;42.160;24.746;2023-02-14T05:34:37;100794.31;;;5.82;52.66
11343;BME280;5726;42.160;24.746;2023-02-14T05:37:02;100785.94;;;5.97;52.13
11343;BME280;5726;42.160;24.746;2023-02-14T05:39:28;100786.09;;;6.13;51.64
11343;BME280;5726;42.160;24.746;2023-02-14T05:41:53;100785.06;;;6.25;51.23
11343;BME280;5726;42.160;24.746;2023-02-14T05:44:20;100784.81;;;6.27;51.07
11343;BME280;5726;42.160;24.746;2023-02-14T05:46:46;100788.06;;;6.40;50.84
11343;BME280;5726;42.160;24.746;2023-02-14T05:49:11;100779.50;;;6.38;50.67
11343;BME280;5726;42.160;24.746;2023-02-14T05:51:36;100782.19;;;6.84;51.91
11343;BME280;5726;42.160;24.746;2023-02-14T05:54:02;100771.63;;;7.00;51.13
11343;BME280;5726;42.160;24.746;2023-02-14T05:56:27;100774.84;;;7.13;51.43
11343;BME280;5726;42.160;24.746;2023-02-14T05:58:53;100775.53;;;7.09;50.00
11343;BME280;5726;42.160;24.746;2023-02-14T06:01:18;100769.59;;;7.18;49.40
11343;BME280;5726;42.160;24.746;2023-02-14T06:03:44;100767.00;;;7.35;49.82
11343;BME280;5726;42.160;24.746;2023-02-14T06:06:09;100768.00;;;7.45;49.03
11343;BME280;5726;42.160;24.746;2023-02-14T06:08:35;100773.25;;;7.40;49.09
11343;BME280;5726;42.160;24.746;2023-02-14T06:11:00;100771.91;;;7.54;48.20
11343;BME280;5726;42.160;24.746;2023-02-14T06:13:26;100780.28;;;7.74;48.07
11343;BME280;5726;42.160;24.746;2023-02-14T06:15:51;100786.97;;;7.88;47.06
11343;BME280;5726;42.160;24.746;2023-02-14T06:18:16;100772.28;;;7.74;46.63
11343;BME280;5726;42.160;24.746;2023-02-14T06:20:42;100768.97;;;7.67;46.62
11343;BME280;5726;42.160;24.746;2023-02-14T06:23:07;100778.72;;;7.61;47.14
11343;BME280;5726;42.160;24.746;2023-02-14T06:25:33;100782.81;;;7.53;47.30
11343;BME280;5726;42.160;24.746;2023-02-14T06:27:59;100780.34;;;7.35;47.68
11343;BME280;5726;42.160;24.746;2023-02-14T06:30:25;100778.00;;;7.38;47.66
11343;BME280;5726;42.160;24.746;2023-02-14T06:32:51;100772.19;;;7.41;47.82
11343;BME280;5726;42.160;24.746;2023-02-14T06:35:17;100771.38;;;7.41;48.06
11343;BME280;5726;42.160;24.746;2023-02-14T06:37:42;100766.38;;;7.44;47.88
11343;BME280;5726;42.160;24.746;2023-02-14T06:40:10;100775.63;;;7.53;47.68
11343;BME280;5726;42.160;24.746;2023-02-14T06:42:36;100774.56;;;7.54;47.55
11343;BME280;5726;42.160;24.746;2023-02-14T06:45:02;100772.44;;;7.67;47.25
11343;BME280;5726;42.160;24.746;2023-02-14T06:47:28;100772.22;;;7.85;46.96
11343;BME280;5726;42.160;24.746;2023-02-14T06:49:53;100785.72;;;7.79;47.16
11343;BME280;5726;42.160;24.746;2023-02-14T06:52:19;100783.22;;;7.89;46.90
11343;BME280;5726;42.160;24.746;2023-02-14T06:54:44;100786.72;;;7.61;47.56
11343;BME280;5726;42.160;24.746;2023-02-14T06:57:10;100775.00;;;7.62;47.99
11343;BME280;5726;42.160;24.746;2023-02-14T06:59:35;100780.94;;;7.53;48.37
11343;BME280;5726;42.160;24.746;2023-02-14T07:02:01;100782.72;;;7.48;48.40
11343;BME280;5726;42.160;24.746;2023-02-14T07:04:26;100773.41;;;7.50;48.29
11343;BME280;5726;42.160;24.746;2023-02-14T07:06:52;100776.91;;;7.51;48.36
11343;BME280;5726;42.160;24.746;2023-02-14T07:09:17;100774.19;;;7.62;48.30
11343;BME280;5726;42.160;24.746;2023-02-14T07:11:44;100772.22;;;7.58;48.54
11343;BME280;5726;42.160;24.746;2023-02-14T07:14:10;100771.50;;;7.62;48.79
11343;BME280;5726;42.160;24.746;2023-02-14T07:16:35;100774.34;;;7.56;48.81
11343;BME280;5726;42.160;24.746;2023-02-14T07:19:01;100772.22;;;7.58;48.83
11343;BME280;5726;42.160;24.746;2023-02-14T07:21:26;100768.81;;;7.73;49.02
11343;BME280;5726;42.160;24.746;2023-02-14T07:23:52;100775.81;;;7.63;49.32
11343;BME280;5726;42.160;24.746;2023-02-14T07:26:17;100756.63;;;7.94;48.75
11343;BME280;5726;42.160;24.746;2023-02-14T07:28:46;100767.13;;;7.84;49.16
11343;BME280;5726;42.160;24.746;2023-02-14T07:31:16;100775.53;;;7.76;49.07
11343;BME280;5726;42.160;24.746;2023-02-14T07:33:42;100760.63;;;7.80;49.56
11343;BME280;5726;42.160;24.746;2023-02-14T07:36:08;100769.00;;;7.83;49.28
11343;BME280;5726;42.160;24.746;2023-02-14T07:38:34;100754.81;;;7.83;49.36
11343;BME280;5726;42.160;24.746;2023-02-14T07:41:00;100755.19;;;8.03;48.80
11343;BME280;5726;42.160;24.746;2023-02-14T07:43:26;100748.28;;;8.07;48.95
11343;BME280;5726;42.160;24.746;2023-02-14T07:45:51;100750.38;;;8.16;48.90
11343;BME280;5726;42.160;24.746;2023-02-14T07:48:17;100752.22;;;8.15;49.16
11343;BME280;5726;42.160;24.746;2023-02-14T07:50:42;100739.94;;;8.14;49.33
11343;BME280;5726;42.160;24.746;2023-02-14T07:53:07;100753.19;;;8.26;48.96
11343;BME280;5726;42.160;24.746;2023-02-14T07:55:33;100749.72;;;8.25;48.89
11343;BME280;5726;42.160;24.746;2023-02-14T07:57:59;100747.44;;;8.17;49.33
11343;BME280;5726;42.160;24.746;2023-02-14T08:00:25;100741.94;;;8.24;49.88
11343;BME280;5726;42.160;24.746;2023-02-14T08:02:51;100747.69;;;8.32;49.99
11343;BME280;5726;42.160;24.746;2023-02-14T08:05:16;100750.13;;;8.34;50.12
11343;BME280;5726;42.160;24.746;2023-02-14T08:07:42;100740.63;;;8.43;49.20
11343;BME280;5726;42.160;24.746;2023-02-14T08:10:08;100747.50;;;8.55;49.35
11343;BME280;5726;42.160;24.746;2023-02-14T08:12:34;100750.81;;;8.62;49.49
11343;BME280;5726;42.160;24.746;2023-02-14T08:15:18;100751.31;;;8.59;49.70
11343;BME280;5726;42.160;24.746;2023-02-14T08:18:02;100753.63;;;8.72;49.26
11343;BME280;5726;42.160;24.746;2023-02-14T08:20:27;100756.28;;;8.72;49.18
11343;BME280;5726;42.160;24.746;2023-02-14T08:22:53;100752.56;;;8.73;49.41
11343;BME280;5726;42.160;24.746;2023-02-14T08:25:18;100761.09;;;8.91;48.99
11343;BME280;5726;42.160;24.746;2023-02-14T08:27:44;100762.38;;;9.05;48.37
11343;BME280;5726;42.160;24.746;2023-02-14T08:30:09;100775.00;;;9.09;48.04
11343;BME280;5726;42.160;24.746;2023-02-14T08:32:35;100767.53;;;9.11;48.20
11343;BME280;5726;42.160;24.746;2023-02-14T08:35:01;100768.41;;;9.38;47.58
11343;BME280;5726;42.160;24.746;2023-02-14T08:37:26;100770.09;;;9.44;47.83
11343;BME280;5726;42.160;24.746;2023-02-14T08:39:51;100763.59;;;9.88;46.52
11343;BME280;5726;42.160;24.746;2023-02-14T08:42:17;100774.03;;;10.10;45.52
11343;BME280;5726;42.160;24.746;2023-02-14T08:44:42;100775.22;;;9.98;45.93
11343;BME280;5726;42.160;24.746;2023-02-14T08:47:08;100766.19;;;10.04;45.83
11343;BME280;5726;42.160;24.746;2023-02-14T08:49:33;100770.78;;;10.08;45.64
11343;BME280;5726;42.160;24.746;2023-02-14T08:51:58;100761.03;;;10.29;45.27
11343;BME280;5726;42.160;24.746;2023-02-14T08:54:24;100767.19;;;10.65;44.63
11343;BME280;5726;42.160;24.746;2023-02-14T08:56:49;100760.59;;;10.83;43.82
11343;BME280;5726;42.160;24.746;2023-02-14T08:59:15;100756.69;;;11.05;43.51
11343;BME280;5726;42.160;24.746;2023-02-14T09:01:40;100754.34;;;11.23;43.06
11343;BME280;5726;42.160;24.746;2023-02-14T09:04:05;100746.63;;;11.32;42.74
11343;BME280;5726;42.160;24.746;2023-02-14T09:06:31;100742.50;;;11.14;42.88
11343;BME280;5726;42.160;24.746;2023-02-14T09:08:57;100733.56;;;10.94;43.43
11343;BME280;5726;42.160;24.746;2023-02-14T09:11:23;100733.84;;;10.97;42.97
11343;BME280;5726;42.160;24.746;2023-02-14T09:13:50;100731.75;;;11.04;42.95
11343;BME280;5726;42.160;24.746;2023-02-14T09:16:18;100721.53;;;11.06;42.50
11343;BME280;5726;42.160;24.746;2023-02-14T09:18:44;100737.72;;;11.16;42.71
11343;BME280;5726;42.160;24.746;2023-02-14T09:21:13;100726.88;;;10.96;42.68
11343;BME280;5726;42.160;24.746;2023-02-14T09:23:38;100720.50;;;11.12;42.52
11343;BME280;5726;42.160;24.746;2023-02-14T09:26:09;100721.28;;;11.13;42.65
11343;BME280;5726;42.160;24.746;2023-02-14T09:28:35;100719.97;;;11.15;42.52
11343;BME280;5726;42.160;24.746;2023-02-14T09:31:27;100717.94;;;11.47;42.32
11343;BME280;5726;42.160;24.746;2023-02-14T09:33:52;100708.91;;;11.73;41.60
11343;BME280;5726;42.160;24.746;2023-02-14T09:36:36;100705.38;;;11.72;41.23
11343;BME280;5726;42.160;24.746;2023-02-14T09:39:20;100696.50;;;11.57;41.31
11343;BME280;5726;42.160;24.746;2023-02-14T09:44:43;100695.72;;;11.76;41.71
11343;BME280;5726;42.160;24.746;2023-02-14T09:49:42;100693.31;;;11.75;41.82
11343;BME280;5726;42.160;24.746;2023-02-14T09:52:12;100695.97;;;11.80;41.46
11343;BME280;5726;42.160;24.746;2023-02-14T09:54:39;100686.22;;;11.34;41.57
11343;BME280;5726;42.160;24.746;2023-02-14T09:57:30;100679.31;;;11.63;41.08
11343;BME280;5726;42.160;24.746;2023-02-14T10:00:16;100676.66;;;11.88;40.32
11343;BME280;5726;42.160;24.746;2023-02-14T10:11:22;100663.47;;;12.11;40.08
11343;BME280;5726;42.160;24.746;2023-02-14T10:13:57;100667.78;;;12.02;39.20
11343;BME280;5726;42.160;24.746;2023-02-14T10:16:30;100672.88;;;12.03;39.29
11343;BME280;5726;42.160;24.746;2023-02-14T10:19:16;100663.47;;;11.91;38.90
11343;BME280;5726;42.160;24.746;2023-02-14T10:22:02;100655.13;;;11.97;38.88
11343;BME280;5726;42.160;24.746;2023-02-14T10:24:39;100647.88;;;12.13;39.17
11343;BME280;5726;42.160;24.746;2023-02-14T10:27:29;100656.22;;;12.01;39.40
11343;BME280;5726;42.160;24.746;2023-02-14T10:29:54;100665.09;;;12.12;39.73
11343;BME280;5726;42.160;24.746;2023-02-14T10:32:30;100656.19;;;12.21;38.79
11343;BME280;5726;42.160;24.746;2023-02-14T10:35:05;100643.59;;;11.87;39.40
11343;BME280;5726;42.160;24.746;2023-02-14T10:40:53;100641.19;;;12.05;39.18
11343;BME280;5726;42.160;24.746;2023-02-14T11:02:09;100606.53;;;11.74;41.05
11343;BME280;5726;42.160;24.746;2023-02-14T11:04:37;100597.38;;;11.75;40.95
11343;BME280;5726;42.160;24.746;2023-02-14T11:07:03;100603.03;;;11.79;40.87
11343;BME280;5726;42.160;24.746;2023-02-14T11:09:28;100593.06;;;11.79;41.25
11343;BME280;5726;42.160;24.746;2023-02-14T11:11:58;100604.59;;;12.04;40.83
11343;BME280;5726;42.160;24.746;2023-02-14T11:16:50;100592.78;;;12.00;40.37
11343;BME280;5726;42.160;24.746;2023-02-14T11:19:26;100583.06;;;12.19;40.21
11343;BME280;5726;42.160;24.746;2023-02-14T11:21:54;100597.56;;;12.38;39.88
11343;BME280;5726;42.160;24.746;2023-02-14T11:26:55;100591.03;;;12.59;39.10
11343;BME280;5726;42.160;24.746;2023-02-14T11:29:30;100581.22;;;11.90;41.30
11343;BME280;5726;42.160;24.746;2023-02-14T11:32:12;100586.34;;;12.01;41.86
11343;BME280;5726;42.160;24.746;2023-02-14T11:35:00;100583.06;;;12.29;41.39
11343;BME280;5726;42.160;24.746;2023-02-14T11:37:31;100577.69;;;12.29;41.19
11343;BME280;5726;42.160;24.746;2023-02-14T11:40:00;100580.91;;;12.21;41.68
11343;BME280;5726;42.160;24.746;2023-02-14T11:44:57;100574.44;;;12.32;40.84
11343;BME280;5726;42.160;24.746;2023-02-14T11:47:32;100575.50;;;12.31;41.32
11343;BME280;5726;42.160;24.746;2023-02-14T11:50:22;100577.28;;;12.55;40.73
11343;BME280;5726;42.160;24.746;2023-02-14T11:52:52;100571.97;;;12.40;40.96
11343;BME280;5726;42.160;24.746;2023-02-14T11:55:37;100573.38;;;12.28;41.28
11343;BME280;5726;42.160;24.746;2023-02-14T11:58:04;100566.72;;;11.91;42.03
11343;BME280;5726;42.160;24.746;2023-02-14T12:00:32;100558.34;;;12.17;41.18
11343;BME280;5726;42.160;24.746;2023-02-14T12:03:00;100548.16;;;12.04;41.37
11343;BME280;5726;42.160;24.746;2023-02-14T12:05:43;100551.69;;;11.85;42.31
11343;BME280;5726;42.160;24.746;2023-02-14T12:08:10;100556.78;;;11.92;42.14
11343;BME280;5726;42.160;24.746;2023-02-14T12:10:39;100543.09;;;11.78;42.35
11343;BME280;5726;42.160;24.746;2023-02-14T12:20:54;100529.78;;;12.31;41.08
11343;BME280;5726;42.160;24.746;2023-02-14T12:29:41;100544.34;;;12.15;40.93
11343;BME280;5726;42.160;24.746;2023-02-14T12:32:23;100536.63;;;11.94;41.33
11343;BME280;5726;42.160;24.746;2023-02-14T12:34:50;100547.84;;;12.21;40.85
11343;BME280;5726;42.160;24.746;2023-02-14T12:37:30;100521.84;;;11.96;41.61
11343;BME280;5726;42.160;24.746;2023-02-14T12:47:38;100534.19;;;11.97;42.14
11343;BME280;5726;42.160;24.746;2023-02-14T12:55:52;100524.06;;;11.60;42.89
11343;BME280;5726;42.160;24.746;2023-02-14T13:06:51;100532.09;;;11.65;43.26
11343;BME280;5726;42.160;24.746;2023-02-14T13:09:46;100522.69;;;11.43;43.47
11343;BME280;5726;42.160;24.746;2023-02-14T13:12:33;100531.03;;;11.16;44.63
11343;BME280;5726;42.160;24.746;2023-02-14T13:20:43;100538.00;;;11.22;44.09
11343;BME280;5726;42.160;24.746;2023-02-14T13:23:16;100543.34;;;11.17;44.32
11343;BME280;5726;42.160;24.746;2023-02-14T13:25:53;100536.66;;;11.35;44.15
11343;BME280;5726;42.160;24.746;2023-02-14T13:28:20;100525.66;;;11.31;43.97
11343;BME280;5726;42.160;24.746;2023-02-14T13:30:46;100529.69;;;11.24;44.14
11343;BME280;5726;42.160;24.746;2023-02-14T13:33:34;100531.53;;;11.23;44.51
11343;BME280;5726;42.160;24.746;2023-02-14T13:36:05;100535.28;;;11.02;44.84
11343;BME280;5726;42.160;24.746;2023-02-14T13:38:37;100540.13;;;10.96;45.08
11343;BME280;5726;42.160;24.746;2023-02-14T13:41:04;100541.72;;;10.92;45.31
11343;BME280;5726;42.160;24.746;2023-02-14T13:46:10;100552.41;;;10.82;45.78
11343;BME280;5726;42.160;24.746;2023-02-14T13:48:36;100550.25;;;10.74;45.83
11343;BME280;5726;42.160;24.746;2023-02-14T13:51:04;100550.78;;;10.76;46.12
11343;BME280;5726;42.160;24.746;2023-02-14T13:55:55;100559.13;;;10.89;46.32
11343;BME280;5726;42.160;24.746;2023-02-14T13:58:22;100567.97;;;10.80;46.50
11343;BME280;5726;42.160;24.746;2023-02-14T14:00:49;100568.50;;;10.72;46.65
11343;BME280;5726;42.160;24.746;2023-02-14T14:10:54;100574.88;;;10.61;46.72
11343;BME280;5726;42.160;24.746;2023-02-14T14:18:48;100590.91;;;10.46;47.21
11343;BME280;5726;42.160;24.746;2023-02-14T14:24:28;100584.75;;;10.46;47.17
11343;BME280;5726;42.160;24.746;2023-02-14T14:27:32;100580.59;;;10.18;47.55
11343;BME280;5726;42.160;24.746;2023-02-14T14:30:22;100582.50;;;10.23;47.46
11343;BME280;5726;42.160;24.746;2023-02-14T14:32:46;100586.81;;;10.34;47.22
11343;BME280;5726;42.160;24.746;2023-02-14T14:37:51;100582.31;;;10.44;46.73
11343;BME280;5726;42.160;24.746;2023-02-14T14:42:47;100583.63;;;10.42;46.79
11343;BME280;5726;42.160;24.746;2023-02-14T14:45:20;100577.16;;;10.28;47.73
11343;BME280;5726;42.160;24.746;2023-02-14T14:47:47;100581.66;;;10.17;47.77
11343;BME280;5726;42.160;24.746;2023-02-14T14:50:23;100584.06;;;10.19;47.43
11343;BME280;5726;42.160;24.746;2023-02-14T14:53:26;100582.06;;;9.95;48.09
11343;BME280;5726;42.160;24.746;2023-02-14T14:55:53;100580.28;;;9.74;48.71
11343;BME280;5726;42.160;24.746;2023-02-14T14:58:30;100582.94;;;9.74;49.19
11343;BME280;5726;42.160;24.746;2023-02-14T15:00:57;100588.59;;;9.77;49.18
11343;BME280;5726;42.160;24.746;2023-02-14T15:03:24;100591.53;;;9.76;49.03
11343;BME280;5726;42.160;24.746;2023-02-14T15:05:50;100593.28;;;9.60;49.61
11343;BME280;5726;42.160;24.746;2023-02-14T15:13:35;100596.75;;;9.61;50.27
11343;BME280;5726;42.160;24.746;2023-02-14T15:21:41;100599.56;;;9.45;50.84
11343;BME280;5726;42.160;24.746;2023-02-14T15:24:12;100607.03;;;9.38;51.61
11343;BME280;5726;42.160;24.746;2023-02-14T15:26:42;100605.13;;;9.38;51.54
11343;BME280;5726;42.160;24.746;2023-02-14T15:29:23;100606.97;;;9.06;52.54
11343;BME280;5726;42.160;24.746;2023-02-14T15:31:50;100611.84;;;8.88;53.74
11343;BME280;5726;42.160;24.746;2023-02-14T15:34:22;100609.81;;;9.00;53.14
11343;BME280;5726;42.160;24.746;2023-02-14T15:36:49;100607.53;;;9.08;52.94
11343;BME280;5726;42.160;24.746;2023-02-14T15:39:24;100599.28;;;8.89;53.74
11343;BME280;5726;42.160;24.746;2023-02-14T15:41:53;100612.66;;;8.89;53.76
11343;BME280;5726;42.160;24.746;2023-02-14T15:44:23;100615.38;;;8.94;53.59
11343;BME280;5726;42.160;24.746;2023-02-14T15:46:58;100618.50;;;8.86;54.00
11343;BME280;5726;42.160;24.746;2023-02-14T15:49:36;100616.88;;;8.85;53.69
11343;BME280;5726;42.160;24.746;2023-02-14T15:52:04;100595.78;;;8.88;53.54
11343;BME280;5726;42.160;24.746;2023-02-14T15:54:36;100608.88;;;8.85;53.83
11343;BME280;5726;42.160;24.746;2023-02-14T15:57:03;100593.41;;;8.65;54.29